Mc Call, Idaho
Current Conditions -  °F | °C
As of 7:29 AM on Tuesday 21 Oct 2014 (Local Time) from KMYL Reporting Station
Light Rain Light Rain  
Wind Chill: 36°   Ceiling: 2000
Heat Index: 41°   Visibility: 7mi
Dew Point: 39°   Wind: 7mph
Humidity: 93%   Direction: 190°S
Pressure: 29.87"   Gusts: NA
Location:  44.8918°N, 116.0789°W
Report Text: KMYL 211329Z AUTO 19006KT 7SM -RA SCT009 SCT012 OVC020 05/04 A2987 RMK AO2 P0002 T00500039
Loading
Personal Weather Stations






























Interactive Weather Map
Tropical Storm Tracking
New forecast layout! Learn more

10-Day Weather Forecast

Advertisements
Track Severe Weather on mobile